Time;durP1;ratioP1;P1;durP2;ratioP2;P2;SDS_P1;SDS_P2;PMS_P1;PMS_P2;Temp;Humidity;BMP_temperature;BMP_pressure;BME280_temperature;BME280_humidity;BME280_pressure;Samples;Min_cycle;Max_cycle;Signal;HPM_P1;HPM_P2
2023/11/29 00:03:36;;;;;;;6.22;2.67;;;4.40;99.90;;;;;;10019849;28;20052;-73
2023/11/29 00:08:27;;;;;;;3.95;1.88;;;4.40;99.90;;;;;;10018780;28;20050;-73
2023/11/29 00:13:19;;;;;;;4.53;2.53;;;4.30;99.90;;;;;;10018426;28;20041;-73
2023/11/29 00:18:13;;;;;;;4.63;2.20;;;4.20;99.90;;;;;;10016621;28;20038;-73
2023/11/29 00:23:04;;;;;;;4.03;2.03;;;4.40;99.90;;;;;;10018942;28;20034;-72
2023/11/29 00:27:55;;;;;;;3.90;2.17;;;4.40;99.90;;;;;;10020711;28;20026;-72
2023/11/29 00:32:46;;;;;;;3.40;2.13;;;4.40;99.90;;;;;;10023133;28;20496;-73
2023/11/29 00:37:37;;;;;;;2.55;2.10;;;4.30;99.90;;;;;;10018577;28;20018;-72
2023/11/29 00:42:28;;;;;;;5.63;2.70;;;4.30;99.90;;;;;;10021151;28;20041;-72
2023/11/29 00:47:19;;;;;;;4.22;1.95;;;4.20;99.90;;;;;;10018252;28;20032;-74
2023/11/29 00:52:10;;;;;;;4.43;2.17;;;4.30;99.90;;;;;;10018256;28;20049;-74
2023/11/29 00:57:00;;;;;;;3.67;2.45;;;4.20;99.90;;;;;;10017515;28;20045;-73
2023/11/29 01:01:51;;;;;;;4.40;3.00;;;4.20;99.90;;;;;;10018175;28;20026;-75
2023/11/29 01:06:42;;;;;;;8.40;4.30;;;4.10;99.90;;;;;;10017957;28;20101;-73
2023/11/29 01:11:32;;;;;;;5.55;3.42;;;4.10;99.90;;;;;;10017685;28;20041;-73
2023/11/29 01:16:23;;;;;;;4.95;3.03;;;4.10;99.90;;;;;;10017159;28;20052;-73
2023/11/29 01:21:15;;;;;;;7.38;3.10;;;4.00;99.90;;;;;;10017378;28;20034;-74
2023/11/29 01:26:09;;;;;;;9.25;3.67;;;4.00;99.90;;;;;;10016790;28;20014;-74
2023/11/29 01:31:00;;;;;;;3.85;2.78;;;4.00;99.90;;;;;;10039413;28;20149;-74
2023/11/29 01:35:51;;;;;;;5.97;2.92;;;4.00;99.90;;;;;;10016321;28;20106;-73
2023/11/29 01:40:45;;;;;;;7.93;3.65;;;4.00;99.90;;;;;;10017132;28;20095;-74
2023/11/29 01:45:36;;;;;;;4.88;3.13;;;4.00;99.90;;;;;;10033496;28;20029;-73
2023/11/29 01:50:35;;;;;;;8.30;3.30;;;3.90;99.90;;;;;;10016599;28;20038;-74
2023/11/29 01:55:28;;;;;;;4.95;2.70;;;3.90;99.90;;;;;;10015903;28;20058;-73
2023/11/29 02:00:19;;;;;;;4.30;2.92;;;3.80;99.90;;;;;;10016461;28;20054;-74
2023/11/29 02:05:13;;;;;;;5.32;2.85;;;3.70;99.90;;;;;;10015894;28;20312;-74
2023/11/29 02:10:05;;;;;;;8.30;4.18;;;3.80;99.90;;;;;;10016321;28;20042;-73
2023/11/29 02:14:56;;;;;;;4.93;3.08;;;3.80;99.90;;;;;;10015992;28;20022;-73
2023/11/29 02:19:48;;;;;;;6.70;3.60;;;3.80;99.90;;;;;;10015847;28;20053;-72
2023/11/29 02:24:41;;;;;;;6.57;3.00;;;3.80;99.90;;;;;;10015538;28;20072;-73
2023/11/29 02:29:32;;;;;;;6.10;3.28;;;3.70;99.90;;;;;;10023695;28;20061;-73
2023/11/29 02:34:22;;;;;;;5.20;2.88;;;3.60;99.90;;;;;;10015241;28;20566;-74
2023/11/29 02:39:16;;;;;;;6.43;2.83;;;3.60;99.90;;;;;;10015897;28;20523;-74
2023/11/29 02:44:07;;;;;;;4.38;2.97;;;3.60;99.90;;;;;;10017999;28;20569;-72
2023/11/29 02:48:58;;;;;;;6.95;3.35;;;3.70;99.90;;;;;;10030334;28;20052;-73
2023/11/29 02:53:49;;;;;;;6.63;3.13;;;3.70;99.90;;;;;;10016767;28;20041;-72
2023/11/29 02:58:40;;;;;;;5.60;3.53;;;3.60;99.90;;;;;;10037644;28;20097;-74
2023/11/29 03:03:30;;;;;;;7.00;2.75;;;3.70;99.90;;;;;;10022143;28;20083;-74
2023/11/29 03:08:22;;;;;;;5.78;2.75;;;3.70;99.90;;;;;;10023364;28;20522;-74
2023/11/29 03:13:13;;;;;;;4.55;2.90;;;3.70;99.90;;;;;;10021931;28;20415;-74
2023/11/29 03:18:04;;;;;;;7.30;3.28;;;3.70;99.90;;;;;;10029320;28;20033;-74
2023/11/29 03:22:55;;;;;;;5.82;3.13;;;3.70;99.90;;;;;;10021446;28;20104;-75
2023/11/29 03:27:45;;;;;;;7.10;3.63;;;3.70;99.90;;;;;;10021682;28;20052;-75
2023/11/29 03:32:36;;;;;;;5.30;3.38;;;3.80;99.90;;;;;;10027855;28;20668;-74
2023/11/29 03:37:26;;;;;;;5.45;3.08;;;3.90;99.90;;;;;;10021262;28;20036;-73
2023/11/29 03:42:17;;;;;;;6.55;2.83;;;3.80;99.90;;;;;;10039522;28;20121;-74
2023/11/29 03:47:08;;;;;;;3.90;2.53;;;3.80;99.90;;;;;;10020193;28;20092;-74
2023/11/29 03:51:59;;;;;;;3.88;2.80;;;3.80;99.90;;;;;;10020266;28;20034;-74
2023/11/29 03:56:50;;;;;;;6.00;2.88;;;3.80;99.90;;;;;;10019767;28;20045;-75
2023/11/29 04:01:40;;;;;;;4.97;2.90;;;3.90;99.90;;;;;;10028279;28;20026;-74
2023/11/29 04:06:32;;;;;;;4.45;2.85;;;3.80;99.90;;;;;;10027923;28;20038;-75
2023/11/29 04:11:23;;;;;;;4.88;2.17;;;3.90;99.90;;;;;;10018655;28;20125;-74
2023/11/29 04:16:27;;;;;;;3.97;2.30;;;3.90;99.90;;;;;;10019449;28;20595;-75
2023/11/29 04:21:23;;;;;;;3.60;2.50;;;3.90;99.90;;;;;;10020285;28;20124;-74
2023/11/29 04:26:34;;;;;;;5.85;3.10;;;3.80;99.90;;;;;;10034309;28;20034;-74
2023/11/29 04:31:25;;;;;;;5.15;3.05;;;3.90;99.90;;;;;;10028531;28;20613;-75
2023/11/29 04:36:16;;;;;;;5.43;3.05;;;3.80;99.90;;;;;;10021044;28;20092;-74
2023/11/29 04:41:08;;;;;;;6.45;3.10;;;3.70;99.90;;;;;;10018168;28;20095;-75
2023/11/29 04:45:59;;;;;;;5.22;3.33;;;3.70;99.90;;;;;;10045038;28;20037;-73
2023/11/29 04:50:50;;;;;;;4.72;3.38;;;3.70;99.90;;;;;;10018401;28;20034;-75
2023/11/29 04:55:40;;;;;;;6.30;3.92;;;3.70;99.90;;;;;;10017912;28;20042;-74
2023/11/29 05:00:31;;;;;;;5.57;2.83;;;3.80;99.90;;;;;;10018405;28;20029;-75
2023/11/29 05:05:23;;;;;;;7.60;3.25;;;3.70;99.90;;;;;;10017848;28;20495;-73
2023/11/29 05:10:14;;;;;;;4.60;2.63;;;3.70;99.90;;;;;;10017698;28;20125;-74
2023/11/29 05:15:05;;;;;;;5.70;2.85;;;3.70;99.90;;;;;;10032186;28;20096;-74
2023/11/29 05:19:56;;;;;;;6.35;2.97;;;3.60;99.90;;;;;;10017844;28;20514;-74
2023/11/29 05:24:47;;;;;;;5.35;2.95;;;3.70;99.90;;;;;;10016928;28;20036;-73
2023/11/29 05:29:41;;;;;;;4.90;2.80;;;3.60;99.90;;;;;;10038368;28;20139;-72
2023/11/29 05:34:32;;;;;;;4.00;2.67;;;3.60;99.90;;;;;;10053249;22;20084;-69
2023/11/29 05:39:22;;;;;;;7.05;2.80;;;3.60;99.90;;;;;;10075022;28;20072;-68
2023/11/29 05:44:13;;;;;;;5.80;2.60;;;3.60;99.90;;;;;;10075617;28;20030;-67
2023/11/29 05:49:04;;;;;;;4.20;2.42;;;3.70;99.90;;;;;;10081647;28;20644;-67
2023/11/29 05:53:54;;;;;;;5.10;2.88;;;3.60;99.90;;;;;;10065739;28;20034;-67
2023/11/29 05:58:45;;;;;;;4.55;2.25;;;3.70;99.90;;;;;;10059586;28;20029;-67
2023/11/29 06:03:36;;;;;;;3.63;2.38;;;3.70;99.90;;;;;;10062980;28;20119;-67
2023/11/29 06:08:27;;;;;;;2.80;2.13;;;3.70;99.90;;;;;;10056829;28;20124;-67
2023/11/29 06:13:20;;;;;;;4.78;2.15;;;3.70;99.90;;;;;;10053279;28;20045;-68
2023/11/29 06:18:10;;;;;;;5.25;3.15;;;3.70;99.90;;;;;;10070840;28;20052;-68
2023/11/29 06:23:01;;;;;;;5.13;2.97;;;3.70;99.90;;;;;;10068370;28;20044;-68
2023/11/29 06:27:53;;;;;;;3.80;2.20;;;3.70;99.90;;;;;;10059931;28;20462;-70
2023/11/29 06:32:44;;;;;;;3.38;2.22;;;3.80;99.90;;;;;;10076936;28;20093;-68
2023/11/29 06:37:35;;;;;;;5.22;2.58;;;3.70;99.90;;;;;;10084223;28;20049;-68
2023/11/29 06:42:25;;;;;;;3.03;2.13;;;3.60;99.90;;;;;;10080497;28;20040;-68
2023/11/29 06:47:17;;;;;;;3.97;2.47;;;3.60;99.90;;;;;;10075797;28;20044;-67
2023/11/29 06:52:08;;;;;;;6.28;2.60;;;3.60;99.90;;;;;;10075266;28;20059;-67
2023/11/29 06:56:59;;;;;;;4.30;2.60;;;3.60;99.90;;;;;;10065624;28;20479;-69
2023/11/29 07:01:49;;;;;;;7.30;2.70;;;3.60;99.90;;;;;;10066893;28;20025;-67
2023/11/29 07:06:40;;;;;;;4.68;2.80;;;3.60;99.90;;;;;;10091139;28;20025;-68
2023/11/29 07:11:32;;;;;;;5.22;2.25;;;3.60;99.90;;;;;;10086172;28;20062;-67
2023/11/29 07:16:22;;;;;;;4.38;3.03;;;3.70;99.90;;;;;;10080733;28;20034;-68
2023/11/29 07:21:13;;;;;;;3.78;2.60;;;3.70;99.90;;;;;;10056407;28;20112;-68
2023/11/29 07:26:04;;;;;;;4.75;2.10;;;3.70;99.90;;;;;;10068928;28;20029;-67
2023/11/29 07:30:54;;;;;;;7.00;2.78;;;3.70;99.90;;;;;;10066417;28;20267;-68
2023/11/29 07:35:45;;;;;;;4.30;2.03;;;3.70;99.90;;;;;;10079389;28;20046;-68
2023/11/29 07:40:37;;;;;;;4.15;2.17;;;3.60;99.90;;;;;;10077339;28;20088;-68
2023/11/29 07:45:28;;;;;;;7.10;2.88;;;3.70;99.90;;;;;;10077124;28;20427;-68
2023/11/29 07:50:20;;;;;;;3.95;2.15;;;3.70;99.90;;;;;;10074533;28;20042;-66
2023/11/29 07:55:11;;;;;;;4.38;2.42;;;3.70;99.90;;;;;;10064240;28;20100;-66
2023/11/29 08:00:12;;;;;;;5.45;2.40;;;3.70;99.90;;;;;;10062649;28;20059;-67
2023/11/29 08:05:03;;;;;;;3.80;2.20;;;3.60;99.90;;;;;;10086330;28;20032;-70
2023/11/29 08:09:53;;;;;;;6.20;2.45;;;3.70;99.90;;;;;;10079141;28;20033;-66
2023/11/29 08:14:44;;;;;;;6.45;2.55;;;3.70;99.90;;;;;;10074396;28;20065;-66
2023/11/29 08:19:35;;;;;;;4.47;2.58;;;3.70;99.90;;;;;;10074787;28;20037;-66
2023/11/29 08:24:25;;;;;;;4.00;2.58;;;3.80;99.90;;;;;;10062800;28;20155;-66
2023/11/29 08:29:16;;;;;;;2.88;2.30;;;3.80;99.90;;;;;;10053311;28;20422;-66
2023/11/29 08:34:06;;;;;;;4.72;2.22;;;3.80;99.90;;;;;;10079924;28;20049;-67
2023/11/29 08:38:57;;;;;;;4.18;2.47;;;3.90;99.90;;;;;;10078782;28;20470;-67
2023/11/29 08:43:48;;;;;;;3.85;2.00;;;3.90;99.90;;;;;;10071125;28;20033;-66
2023/11/29 08:48:38;;;;;;;5.25;1.90;;;3.80;99.90;;;;;;10073982;28;20037;-68
2023/11/29 08:53:29;;;;;;;3.08;1.70;;;3.80;99.90;;;;;;10045075;28;20507;-65
2023/11/29 08:58:19;;;;;;;4.50;2.60;;;3.90;99.90;;;;;;10059791;28;20036;-67
2023/11/29 09:03:10;;;;;;;6.18;2.50;;;4.00;99.90;;;;;;10069202;28;20033;-66
2023/11/29 09:08:01;;;;;;;4.88;2.30;;;4.00;99.90;;;;;;10074565;28;20427;-67
2023/11/29 09:12:52;;;;;;;3.70;2.40;;;4.00;99.90;;;;;;10063985;28;20065;-65
2023/11/29 09:17:45;;;;;;;5.20;2.30;;;4.10;99.90;;;;;;10068652;28;20029;-67
2023/11/29 09:22:36;;;;;;;6.65;2.78;;;4.10;99.90;;;;;;10066882;28;20112;-67
2023/11/29 09:27:28;;;;;;;6.22;2.97;;;4.10;99.90;;;;;;10067162;28;20846;-67
2023/11/29 09:32:18;;;;;;;5.53;2.88;;;4.10;99.90;;;;;;10070603;28;20033;-68
2023/11/29 09:37:09;;;;;;;4.85;2.53;;;4.00;99.90;;;;;;10066229;28;20053;-66
2023/11/29 09:42:02;;;;;;;5.78;3.08;;;4.20;99.90;;;;;;10073517;28;20510;-67
2023/11/29 09:46:53;;;;;;;5.68;2.50;;;4.20;99.90;;;;;;10067565;28;20120;-67
2023/11/29 09:51:44;;;;;;;3.70;2.30;;;4.30;99.90;;;;;;10061590;28;20036;-66
2023/11/29 09:56:35;;;;;;;6.38;2.83;;;4.40;99.90;;;;;;10058651;28;20405;-69
2023/11/29 10:01:26;;;;;;;3.88;2.33;;;4.40;99.90;;;;;;10077999;28;20033;-67
2023/11/29 10:06:17;;;;;;;4.82;2.17;;;4.40;99.90;;;;;;10079576;28;20148;-64
2023/11/29 10:11:07;;;;;;;4.43;2.38;;;4.50;99.90;;;;;;10064449;28;20461;-66
2023/11/29 10:15:58;;;;;;;4.82;2.15;;;4.50;99.90;;;;;;10070393;28;20407;-66
2023/11/29 10:20:51;;;;;;;3.55;2.35;;;4.40;99.90;;;;;;10076046;28;20116;-69
2023/11/29 10:25:44;;;;;;;3.88;2.65;;;4.40;99.90;;;;;;10073185;28;20037;-68
2023/11/29 10:30:34;;;;;;;2.85;1.77;;;4.50;99.90;;;;;;10068118;28;20132;-68
2023/11/29 10:35:29;;;;;;;4.47;2.50;;;4.60;99.90;;;;;;10070993;28;20045;-68
2023/11/29 10:40:19;;;;;;;4.25;2.10;;;4.60;99.90;;;;;;10075493;28;20591;-69
2023/11/29 10:45:20;;;;;;;4.22;2.13;;;4.60;99.90;;;;;;10074194;28;20113;-67
2023/11/29 10:50:12;;;;;;;3.35;1.63;;;4.60;99.90;;;;;;10073367;28;20067;-67
2023/11/29 10:55:05;;;;;;;3.55;1.83;;;4.70;99.90;;;;;;10064068;28;20108;-69
2023/11/29 11:00:13;;;;;;;4.97;2.28;;;4.70;99.90;;;;;;10059960;28;20517;-67
2023/11/29 11:05:07;;;;;;;4.40;2.20;;;4.80;99.90;;;;;;10090692;28;20689;-67
2023/11/29 11:10:05;;;;;;;2.97;1.70;;;4.90;99.90;;;;;;10086147;28;20041;-68
2023/11/29 11:14:58;;;;;;;4.07;2.13;;;5.00;99.90;;;;;;10062088;28;20068;-65
2023/11/29 11:19:53;;;;;;;4.30;2.60;;;5.10;99.90;;;;;;10065482;28;20021;-67
2023/11/29 11:24:56;;;;;;;3.30;1.93;;;5.10;99.90;;;;;;10072054;28;20628;-65
2023/11/29 11:29:47;;;;;;;4.75;2.60;;;5.20;99.90;;;;;;10066048;28;20180;-65
2023/11/29 11:34:38;;;;;;;4.07;2.10;;;5.20;99.90;;;;;;10063671;28;20523;-66
2023/11/29 11:39:30;;;;;;;4.05;2.13;;;5.30;99.90;;;;;;10066844;28;20541;-65
2023/11/29 11:44:21;;;;;;;2.38;1.75;;;5.30;99.90;;;;;;10064673;28;20549;-66
2023/11/29 11:49:12;;;;;;;2.17;1.95;;;5.40;99.90;;;;;;10073294;28;20033;-64
2023/11/29 11:54:04;;;;;;;4.05;2.15;;;5.40;99.90;;;;;;10062705;28;20033;-66
2023/11/29 11:58:56;;;;;;;4.60;2.38;;;5.40;99.90;;;;;;10073547;28;20189;-66
2023/11/29 12:03:51;;;;;;;4.95;2.20;;;5.40;99.90;;;;;;10084272;28;20024;-69
2023/11/29 12:08:43;;;;;;;5.78;2.35;;;5.50;99.90;;;;;;10084612;28;20029;-66
2023/11/29 12:13:34;;;;;;;5.93;2.35;;;5.50;99.90;;;;;;10079856;28;20041;-65
2023/11/29 12:18:25;;;;;;;4.05;2.40;;;5.60;99.90;;;;;;10073926;28;20033;-65
2023/11/29 12:23:25;;;;;;;3.83;2.22;;;5.60;99.90;;;;;;10066652;28;20045;-64
2023/11/29 12:28:16;;;;;;;4.35;2.05;;;5.60;99.90;;;;;;10082224;28;20025;-64
2023/11/29 12:33:07;;;;;;;4.50;2.72;;;5.70;99.90;;;;;;10081861;28;20410;-65
2023/11/29 12:37:57;;;;;;;4.10;2.35;;;5.70;99.90;;;;;;10071289;28;20029;-65
2023/11/29 12:42:48;;;;;;;4.05;2.47;;;5.80;99.90;;;;;;10064595;28;20038;-65
2023/11/29 12:47:39;;;;;;;6.25;2.45;;;5.80;99.90;;;;;;10070550;28;20036;-65
2023/11/29 12:52:30;;;;;;;4.43;2.50;;;5.80;99.90;;;;;;10061308;28;20076;-68
2023/11/29 12:57:21;;;;;;;4.28;2.13;;;5.90;99.90;;;;;;10057454;28;20030;-69
2023/11/29 13:02:12;;;;;;;3.55;1.98;;;5.80;99.90;;;;;;10058194;28;20034;-67
2023/11/29 13:07:02;;;;;;;3.88;2.03;;;5.80;99.90;;;;;;10061050;28;20021;-68
2023/11/29 13:11:53;;;;;;;5.50;2.53;;;5.80;99.90;;;;;;10071200;28;20068;-70
2023/11/29 13:16:44;;;;;;;3.78;2.50;;;5.80;99.90;;;;;;10069243;28;20071;-69
2023/11/29 13:21:36;;;;;;;4.10;2.42;;;5.90;99.90;;;;;;10060345;28;20037;-67
2023/11/29 13:26:27;;;;;;;5.38;2.75;;;5.90;99.90;;;;;;10070027;28;20024;-69
2023/11/29 13:31:18;;;;;;;3.60;2.25;;;5.90;99.90;;;;;;10051586;28;20457;-70
2023/11/29 13:36:12;;;;;;;4.97;2.70;;;5.90;99.90;;;;;;10051657;28;20056;-69
2023/11/29 13:41:04;;;;;;;2.90;2.10;;;6.00;99.90;;;;;;10052249;28;20041;-68
2023/11/29 13:45:55;;;;;;;4.97;2.53;;;6.00;99.90;;;;;;10050846;28;20052;-70
2023/11/29 13:50:46;;;;;;;4.47;2.47;;;6.00;99.90;;;;;;10069564;28;20107;-69
2023/11/29 13:55:38;;;;;;;3.80;2.00;;;6.00;99.90;;;;;;10057707;28;20033;-67
2023/11/29 14:00:28;;;;;;;3.65;2.10;;;6.00;99.90;;;;;;10064148;28;20029;-68
2023/11/29 14:05:21;;;;;;;3.13;2.03;;;6.00;99.90;;;;;;10061739;28;20022;-68
2023/11/29 14:10:11;;;;;;;3.90;2.08;;;6.00;99.90;;;;;;10070397;28;20513;-68
2023/11/29 14:15:02;;;;;;;3.88;2.20;;;6.00;99.90;;;;;;10066813;28;20022;-68
2023/11/29 14:19:53;;;;;;;2.78;1.92;;;6.00;99.90;;;;;;10061015;28;20026;-69
2023/11/29 14:24:43;;;;;;;3.85;2.35;;;6.10;99.90;;;;;;10061961;28;20037;-69
2023/11/29 14:29:34;;;;;;;2.88;1.95;;;6.10;99.90;;;;;;10071167;28;20634;-69
2023/11/29 14:34:24;;;;;;;4.57;2.40;;;6.10;99.90;;;;;;10067116;28;20115;-69
2023/11/29 14:39:15;;;;;;;5.20;2.60;;;6.10;99.90;;;;;;10060257;28;20468;-67
2023/11/29 14:44:06;;;;;;;3.42;1.77;;;6.10;99.90;;;;;;10055528;28;20029;-69
2023/11/29 14:48:59;;;;;;;4.97;2.47;;;6.10;99.90;;;;;;10068577;28;20033;-67
2023/11/29 14:53:49;;;;;;;2.97;2.17;;;6.20;99.90;;;;;;10066997;28;20051;-67
2023/11/29 14:58:40;;;;;;;2.88;1.83;;;6.20;99.90;;;;;;10070917;28;20041;-69
2023/11/29 15:03:30;;;;;;;2.65;1.90;;;6.10;99.90;;;;;;10073709;28;20483;-69
2023/11/29 15:08:21;;;;;;;7.15;3.28;;;6.10;99.90;;;;;;10069841;28;20041;-67
2023/11/29 15:13:12;;;;;;;3.67;2.38;;;6.20;99.90;;;;;;10067910;28;20641;-68
2023/11/29 15:18:02;;;;;;;4.50;2.80;;;6.20;99.90;;;;;;10074639;28;20132;-68
2023/11/29 15:22:54;;;;;;;3.45;1.67;;;6.20;99.90;;;;;;10071611;28;20125;-68
2023/11/29 15:27:45;;;;;;;3.20;1.90;;;6.20;99.90;;;;;;10064462;28;20061;-68
2023/11/29 15:32:35;;;;;;;2.33;1.65;;;6.20;99.90;;;;;;10062062;28;20423;-68
2023/11/29 15:37:27;;;;;;;2.65;1.50;;;6.20;99.90;;;;;;10061679;28;20049;-69
2023/11/29 15:42:17;;;;;;;2.60;1.70;;;6.20;99.90;;;;;;10065225;28;20037;-69
2023/11/29 15:47:08;;;;;;;2.58;2.10;;;6.20;99.90;;;;;;10065913;28;20079;-69
2023/11/29 15:51:59;;;;;;;3.30;1.95;;;6.10;99.90;;;;;;10068978;28;20056;-67
2023/11/29 15:56:49;;;;;;;3.70;2.40;;;6.10;99.90;;;;;;10061285;28;20128;-66
2023/11/29 16:01:40;;;;;;;3.30;2.45;;;6.10;99.90;;;;;;10079430;28;20029;-69
2023/11/29 16:06:32;;;;;;;3.65;1.95;;;6.00;99.90;;;;;;10085237;28;20025;-68
2023/11/29 16:11:23;;;;;;;4.10;1.90;;;6.10;99.90;;;;;;10075346;28;20061;-70
2023/11/29 16:16:14;;;;;;;3.03;1.63;;;6.00;99.90;;;;;;10071739;28;20083;-69
2023/11/29 16:21:05;;;;;;;3.15;1.60;;;6.00;99.90;;;;;;10062440;28;20044;-69
2023/11/29 16:25:56;;;;;;;3.22;2.10;;;6.00;99.90;;;;;;10051194;28;20044;-68
2023/11/29 16:30:48;;;;;;;2.40;1.77;;;6.00;99.90;;;;;;10072420;28;20034;-68
2023/11/29 16:35:39;;;;;;;3.30;1.75;;;6.00;99.90;;;;;;10066975;28;20482;-68
2023/11/29 16:40:30;;;;;;;2.97;1.73;;;5.90;99.90;;;;;;10063662;28;20064;-67
2023/11/29 16:45:22;;;;;;;5.05;2.05;;;5.90;99.90;;;;;;10069814;28;20112;-67
2023/11/29 16:50:13;;;;;;;3.88;2.00;;;6.00;99.90;;;;;;10069884;28;20033;-69
2023/11/29 16:55:04;;;;;;;3.75;1.80;;;5.90;99.90;;;;;;10054606;28;20030;-68
2023/11/29 16:59:54;;;;;;;5.47;2.05;;;5.90;99.90;;;;;;10039939;28;20040;-68
2023/11/29 17:04:45;;;;;;;2.50;1.70;;;5.90;99.90;;;;;;10059170;28;20036;-66
2023/11/29 17:09:36;;;;;;;4.70;1.80;;;5.90;99.90;;;;;;10070803;28;20037;-67
2023/11/29 17:14:27;;;;;;;4.43;2.30;;;5.90;99.90;;;;;;10063082;28;20048;-68
2023/11/29 17:19:18;;;;;;;5.05;2.05;;;5.90;99.90;;;;;;10047982;28;20025;-67
2023/11/29 17:24:09;;;;;;;4.20;2.22;;;5.90;99.90;;;;;;10060337;28;20040;-68
2023/11/29 17:29:03;;;;;;;3.97;1.98;;;5.90;99.90;;;;;;10069508;28;20033;-69
2023/11/29 17:33:54;;;;;;;3.88;1.67;;;5.90;99.90;;;;;;10054067;28;20061;-69
2023/11/29 17:38:44;;;;;;;4.28;1.88;;;5.90;99.90;;;;;;10061299;28;20080;-69
2023/11/29 17:43:36;;;;;;;2.63;1.80;;;5.90;99.90;;;;;;10063420;28;20037;-69
2023/11/29 17:48:27;;;;;;;3.95;1.58;;;5.80;99.90;;;;;;10067464;28;20025;-70
2023/11/29 17:53:19;;;;;;;4.22;2.50;;;5.80;99.90;;;;;;10059905;28;20029;-69
2023/11/29 17:58:11;;;;;;;3.25;2.10;;;5.80;99.90;;;;;;10058401;28;20029;-69
2023/11/29 18:03:02;;;;;;;4.50;2.55;;;5.80;99.90;;;;;;10055930;28;20049;-70
2023/11/29 18:07:52;;;;;;;4.80;2.38;;;5.70;99.90;;;;;;10054172;28;20037;-68
2023/11/29 18:12:43;;;;;;;4.00;2.42;;;5.70;99.90;;;;;;10059556;28;20056;-68
2023/11/29 18:17:34;;;;;;;5.07;2.88;;;5.70;99.90;;;;;;10062593;28;20025;-69
2023/11/29 18:22:28;;;;;;;4.03;2.80;;;5.70;99.90;;;;;;10064814;28;20037;-69
2023/11/29 18:27:19;;;;;;;5.28;3.00;;;5.70;99.90;;;;;;10063763;28;20385;-68
2023/11/29 18:32:10;;;;;;;3.83;2.17;;;5.80;99.90;;;;;;10078238;28;20049;-69
2023/11/29 18:37:07;;;;;;;3.97;2.08;;;5.70;99.90;;;;;;10075807;28;20052;-69
2023/11/29 18:41:57;;;;;;;3.40;2.45;;;5.70;99.90;;;;;;10071817;28;20021;-68
2023/11/29 18:46:48;;;;;;;8.35;4.07;;;5.60;99.90;;;;;;10071500;28;20037;-70
2023/11/29 18:51:38;;;;;;;3.85;2.22;;;5.60;99.90;;;;;;10066791;28;20217;-68
2023/11/29 18:56:29;;;;;;;3.90;1.90;;;5.60;99.90;;;;;;10061832;28;20438;-68
2023/11/29 19:01:21;;;;;;;4.88;2.60;;;5.60;99.90;;;;;;10060769;28;20053;-70
2023/11/29 19:06:15;;;;;;;3.92;2.30;;;5.60;99.90;;;;;;10070523;28;20044;-70
2023/11/29 19:11:05;;;;;;;5.70;2.70;;;5.70;99.90;;;;;;10067914;28;20730;-67
2023/11/29 19:15:57;;;;;;;3.53;2.13;;;5.60;99.90;;;;;;10074646;28;20032;-68
2023/11/29 19:20:48;;;;;;;4.95;2.28;;;5.60;99.90;;;;;;10070201;28;20026;-68
2023/11/29 19:25:38;;;;;;;5.22;2.53;;;5.50;99.90;;;;;;10065466;28;20033;-69
2023/11/29 19:30:29;;;;;;;6.07;2.20;;;5.50;99.90;;;;;;10066619;28;21291;-66
2023/11/29 19:35:20;;;;;;;4.53;2.67;;;5.50;99.90;;;;;;10026353;28;1402736;-68
2023/11/29 19:40:14;;;;;;;4.72;2.67;;;5.60;99.90;;;;;;10069756;28;20111;-69
2023/11/29 19:45:05;;;;;;;5.60;2.50;;;5.60;99.90;;;;;;10049923;28;20076;-66
2023/11/29 19:49:56;;;;;;;3.85;2.15;;;5.60;99.90;;;;;;10065137;28;20045;-68
2023/11/29 19:54:50;;;;;;;4.53;2.40;;;5.60;99.90;;;;;;10059905;28;20029;-69
2023/11/29 19:59:41;;;;;;;5.07;2.28;;;5.60;99.90;;;;;;10063364;28;20044;-67
2023/11/29 20:04:31;;;;;;;5.13;2.53;;;5.50;99.90;;;;;;10061849;28;20048;-66
2023/11/29 20:09:22;;;;;;;7.28;3.55;;;5.60;99.90;;;;;;10067212;28;20079;-68
2023/11/29 20:14:13;;;;;;;5.03;2.58;;;5.60;99.90;;;;;;10067705;28;20121;-68
2023/11/29 20:19:05;;;;;;;3.17;2.42;;;5.60;99.90;;;;;;10070592;28;20108;-66
2023/11/29 20:23:55;;;;;;;7.85;2.80;;;5.50;99.90;;;;;;10065228;28;20033;-69
2023/11/29 20:28:47;;;;;;;4.80;2.72;;;5.50;99.90;;;;;;10064103;28;20037;-68
2023/11/29 20:33:38;;;;;;;4.10;2.45;;;5.50;99.90;;;;;;10074728;28;20053;-67
2023/11/29 20:38:29;;;;;;;4.30;2.88;;;5.50;99.90;;;;;;10069183;28;20043;-67
2023/11/29 20:43:20;;;;;;;4.55;2.60;;;5.50;99.90;;;;;;10068474;28;20047;-69
2023/11/29 20:48:11;;;;;;;5.85;2.67;;;5.40;99.90;;;;;;10073768;28;20439;-68
2023/11/29 20:53:02;;;;;;;4.53;3.13;;;5.30;99.90;;;;;;10063618;28;20627;-67
2023/11/29 20:57:52;;;;;;;3.88;2.63;;;5.30;99.90;;;;;;10053323;28;20040;-67
2023/11/29 21:02:43;;;;;;;3.95;2.33;;;5.40;99.90;;;;;;10059241;28;20040;-70
2023/11/29 21:07:34;;;;;;;4.00;2.05;;;5.30;99.90;;;;;;10059629;28;20091;-69
2023/11/29 21:12:24;;;;;;;5.50;2.72;;;5.30;99.90;;;;;;10067220;28;20072;-68
2023/11/29 21:17:17;;;;;;;7.18;2.42;;;5.20;99.90;;;;;;10062800;28;20033;-69
2023/11/29 21:22:07;;;;;;;4.22;2.60;;;5.30;99.90;;;;;;10056234;28;20127;-69
2023/11/29 21:26:58;;;;;;;5.13;2.45;;;5.20;99.90;;;;;;10056884;28;20032;-68
2023/11/29 21:31:50;;;;;;;4.53;2.58;;;5.20;99.90;;;;;;10067604;28;20589;-70
2023/11/29 21:36:42;;;;;;;5.90;3.40;;;5.20;99.90;;;;;;10065228;28;20045;-68
2023/11/29 21:41:33;;;;;;;6.55;3.13;;;5.20;99.90;;;;;;10062225;28;20026;-69
2023/11/29 21:46:24;;;;;;;4.28;2.88;;;5.10;99.90;;;;;;10071789;28;20111;-70
2023/11/29 21:51:15;;;;;;;5.05;2.78;;;5.10;99.90;;;;;;10063229;28;20052;-70
2023/11/29 21:56:07;;;;;;;5.07;2.80;;;5.10;99.90;;;;;;10055004;28;20034;-69
2023/11/29 22:00:59;;;;;;;4.35;3.17;;;5.10;99.90;;;;;;10060430;28;20101;-68
2023/11/29 22:05:49;;;;;;;4.93;2.53;;;5.10;99.90;;;;;;10063914;28;20030;-68
2023/11/29 22:10:40;;;;;;;5.40;3.13;;;5.00;99.90;;;;;;10065027;28;20124;-68
2023/11/29 22:15:31;;;;;;;5.97;3.28;;;4.90;99.90;;;;;;10055411;28;20198;-69
2023/11/29 22:20:22;;;;;;;6.47;3.28;;;5.00;99.90;;;;;;10064666;28;20029;-67
2023/11/29 22:25:19;;;;;;;5.63;3.05;;;4.90;99.90;;;;;;10060190;28;20037;-68
2023/11/29 22:30:10;;;;;;;4.13;2.83;;;4.90;99.90;;;;;;10073967;28;20037;-68
2023/11/29 22:35:01;;;;;;;5.90;2.95;;;5.00;99.90;;;;;;10045887;28;20499;-66
2023/11/29 22:39:52;;;;;;;5.78;2.55;;;4.90;99.90;;;;;;10054656;28;20018;-67
2023/11/29 22:44:43;;;;;;;5.80;3.15;;;4.90;99.90;;;;;;10057906;28;20064;-67
2023/11/29 22:49:35;;;;;;;5.38;3.10;;;4.80;99.90;;;;;;10038888;28;20364;-67
2023/11/29 22:54:25;;;;;;;7.32;3.60;;;4.80;99.90;;;;;;10054337;28;20029;-66
2023/11/29 22:59:16;;;;;;;5.05;3.15;;;4.90;99.90;;;;;;10054827;28;20025;-66
2023/11/29 23:04:06;;;;;;;4.97;2.70;;;4.90;99.90;;;;;;10062816;28;20036;-68
2023/11/29 23:08:57;;;;;;;4.68;3.28;;;4.90;99.90;;;;;;10059488;28;20037;-66
2023/11/29 23:13:48;;;;;;;5.82;3.55;;;4.80;99.90;;;;;;10069243;28;20380;-65
2023/11/29 23:18:39;;;;;;;5.28;3.50;;;4.90;99.90;;;;;;10071413;28;20028;-70
2023/11/29 23:23:30;;;;;;;5.45;3.03;;;4.90;99.90;;;;;;10068208;28;20037;-65
2023/11/29 23:28:20;;;;;;;4.88;3.40;;;4.90;99.90;;;;;;10074846;28;20048;-66
2023/11/29 23:33:11;;;;;;;4.35;3.15;;;4.90;99.90;;;;;;10069886;28;20042;-65
2023/11/29 23:38:02;;;;;;;4.97;3.83;;;4.90;99.90;;;;;;10074450;28;20022;-66
2023/11/29 23:42:53;;;;;;;9.20;3.20;;;5.00;99.90;;;;;;10072106;28;20028;-65
2023/11/29 23:47:43;;;;;;;6.63;3.08;;;5.00;99.90;;;;;;10069907;28;20491;-66
2023/11/29 23:52:34;;;;;;;6.45;3.40;;;4.90;99.90;;;;;;10063359;28;20041;-66
2023/11/29 23:57:25;;;;;;;7.55;3.72;;;4.90;99.90;;;;;;10065835;28;20021;-66
